Winter Harbor, ME (04693)

4:26 AM EST on January 20, 2017 (GMT -0500)
WHUD | | Change Station

Elev 16 ft 44.39 °N, 68.09 °W | Updated 41 seconds ago

Partly Cloudy
Partly Cloudy
32.3 °F
Feels Like 32 °F
N
1.0
Wind Variable Wind from West
Gusts 1.0 mph

Today
High -- | Low -- °F
--% Chance of Precip.
Yesterday
High -- | Low -- °F
Precip. -- in
Pressure 29.96 in
Visibility 10.0 miles
Clouds Overcast 4100 ft
Windchill 32 °F
Dew Point 29 °F
Humidity 88%
Rainfall 0.00 in
Snow Depth Not available.
7:01 AM 4:25 PM
Last Quarter, 46% visible
METAR KBHB 200856Z AUTO 36003KT 10SM OVC041 M01/M03 A2995 RMK AO2 SLP144 T10061028 58013 FZRANO
Pressure 29.96 in
Visibility 10.0 miles
Clouds Overcast 4100 ft
Windchill 32 °F
Dew Point 29 °F
Humidity 88%
Rainfall 0.00 in
Snow Depth Not available.
7:01 AM 4:25 PM
Last Quarter, 46% visible
METAR KBHB 200856Z AUTO 36003KT 10SM OVC041 M01/M03 A2995 RMK AO2 SLP144 T10061028 58013 FZRANO

Get Your Daily Forecast Email!

Thanks for signing up!

Be on the lookout for a verification email in your inbox.

You'll start receiving the daily forecast at 8 AM.

×

10-Day Weather Forecast

Almanac

Astronomy

Jan. 20, 2017 Rise Set
Actual Time
Civil Twilight
Nautical Twilight
Astronomical Twilight
Moon
Length of Visible Light
Length of Day
Tomorrow will be .
, % of the Moon is Illuminated

Today's Extremes

State Highs State Lows

Community

WunderPhotos

Upload Photos

1,962,540 photos uploaded!

WunderBlog® & News

Nearby

Air Quality

  Air Quality AQ Index Pollutant
Not available.

Snow Depth

Station Depth Elevation

Earthquake Activity

City Distance Mag. Time & Date
Minimum magnitude displayed is 2.5.

Coastal Water Temperatures

Place Temperature

Stations

Nearby Weather Stations

Station Location Temp. Windchill Dew Point Humidity Wind Precip. Elev Updated Type
                   

Watches & Warnings

There are currently no watches in effect.